sensor_id;sensor_type;location;lat;lon;timestamp;pressure;altitude;pressure_sealevel;temperature;humidity
73767;BME280;62074;43.530;-5.646;2022-08-19T00:00:25;102164.28;;;18.62;64.14
73767;BME280;62074;43.530;-5.646;2022-08-19T00:02:51;102160.88;;;18.60;64.31
73767;BME280;62074;43.530;-5.646;2022-08-19T00:05:17;102164.34;;;18.56;64.77
73767;BME280;62074;43.530;-5.646;2022-08-19T00:07:44;102176.13;;;18.51;64.75
73767;BME280;62074;43.530;-5.646;2022-08-19T00:10:12;102137.59;;;18.32;65.02
73767;BME280;62074;43.530;-5.646;2022-08-19T00:12:38;102164.41;;;18.49;65.03
73767;BME280;62074;43.530;-5.646;2022-08-19T00:15:09;102161.47;;;18.33;65.12
73767;BME280;62074;43.530;-5.646;2022-08-19T00:17:40;102161.06;;;18.17;65.76
73767;BME280;62074;43.530;-5.646;2022-08-19T00:20:06;102162.06;;;18.23;65.71
73767;BME280;62074;43.530;-5.646;2022-08-19T00:22:32;102142.34;;;18.13;65.93
73767;BME280;62074;43.530;-5.646;2022-08-19T00:24:58;102155.22;;;18.07;66.14
73767;BME280;62074;43.530;-5.646;2022-08-19T00:27:24;102158.09;;;18.01;66.26
73767;BME280;62074;43.530;-5.646;2022-08-19T00:29:49;102152.22;;;17.90;66.48
73767;BME280;62074;43.530;-5.646;2022-08-19T00:32:16;102167.19;;;17.89;66.65
73767;BME280;62074;43.530;-5.646;2022-08-19T00:34:42;102158.50;;;17.68;67.46
73767;BME280;62074;43.530;-5.646;2022-08-19T00:37:08;102166.94;;;17.91;66.99
73767;BME280;62074;43.530;-5.646;2022-08-19T00:39:34;102160.56;;;17.72;67.28
73767;BME280;62074;43.530;-5.646;2022-08-19T00:41:59;102165.00;;;17.73;67.65
73767;BME280;62074;43.530;-5.646;2022-08-19T00:44:28;102158.00;;;17.71;67.59
73767;BME280;62074;43.530;-5.646;2022-08-19T00:46:56;102165.78;;;17.80;67.39
73767;BME280;62074;43.530;-5.646;2022-08-19T00:49:28;102152.38;;;17.95;66.51
73767;BME280;62074;43.530;-5.646;2022-08-19T00:52:16;102151.97;;;18.10;66.23
73767;BME280;62074;43.530;-5.646;2022-08-19T00:54:44;102152.69;;;18.06;66.26
73767;BME280;62074;43.530;-5.646;2022-08-19T00:57:15;102152.06;;;18.04;66.87
73767;BME280;62074;43.530;-5.646;2022-08-19T00:59:44;102137.53;;;18.08;66.64
73767;BME280;62074;43.530;-5.646;2022-08-19T01:02:11;102121.84;;;17.84;67.01
73767;BME280;62074;43.530;-5.646;2022-08-19T01:04:36;102141.16;;;17.90;66.92
73767;BME280;62074;43.530;-5.646;2022-08-19T01:07:02;102133.00;;;17.95;66.42
73767;BME280;62074;43.530;-5.646;2022-08-19T01:09:29;102135.38;;;17.74;67.38
73767;BME280;62074;43.530;-5.646;2022-08-19T01:11:56;102131.34;;;17.51;68.08
73767;BME280;62074;43.530;-5.646;2022-08-19T01:14:22;102126.81;;;17.39;68.57
73767;BME280;62074;43.530;-5.646;2022-08-19T01:16:48;102131.75;;;17.37;68.25
73767;BME280;62074;43.530;-5.646;2022-08-19T01:19:28;102128.28;;;17.41;68.62
73767;BME280;62074;43.530;-5.646;2022-08-19T01:22:48;102079.16;;;17.37;67.93
73767;BME280;62074;43.530;-5.646;2022-08-19T01:24:47;102124.16;;;17.50;68.49
73767;BME280;62074;43.530;-5.646;2022-08-19T01:27:13;102121.91;;;17.59;67.92
73767;BME280;62074;43.530;-5.646;2022-08-19T01:29:41;102116.22;;;17.54;68.07
73767;BME280;62074;43.530;-5.646;2022-08-19T01:32:09;102108.00;;;17.47;68.34
73767;BME280;62074;43.530;-5.646;2022-08-19T01:34:37;102102.06;;;17.44;68.75
73767;BME280;62074;43.530;-5.646;2022-08-19T01:37:08;102095.25;;;17.65;67.67
73767;BME280;62074;43.530;-5.646;2022-08-19T01:39:37;102072.22;;;17.46;67.70
73767;BME280;62074;43.530;-5.646;2022-08-19T01:42:03;102084.16;;;17.46;68.10
73767;BME280;62074;43.530;-5.646;2022-08-19T01:44:30;102107.34;;;17.70;67.32
73767;BME280;62074;43.530;-5.646;2022-08-19T01:46:56;102101.06;;;17.38;68.14
73767;BME280;62074;43.530;-5.646;2022-08-19T01:49:23;102101.50;;;17.35;68.52
73767;BME280;62074;43.530;-5.646;2022-08-19T01:51:50;102099.34;;;17.19;68.80
73767;BME280;62074;43.530;-5.646;2022-08-19T01:54:18;102099.06;;;17.09;69.55
73767;BME280;62074;43.530;-5.646;2022-08-19T01:56:44;102096.50;;;17.07;69.84
73767;BME280;62074;43.530;-5.646;2022-08-19T01:59:16;102089.28;;;17.06;69.50
73767;BME280;62074;43.530;-5.646;2022-08-19T02:01:44;102091.38;;;17.11;69.49
73767;BME280;62074;43.530;-5.646;2022-08-19T02:04:09;102074.16;;;17.09;69.49
73767;BME280;62074;43.530;-5.646;2022-08-19T02:06:35;102091.66;;;17.21;69.40
73767;BME280;62074;43.530;-5.646;2022-08-19T02:09:02;102080.97;;;17.06;69.79
73767;BME280;62074;43.530;-5.646;2022-08-19T02:11:31;102088.22;;;17.25;69.18
73767;BME280;62074;43.530;-5.646;2022-08-19T02:13:57;102077.31;;;17.12;69.60
73767;BME280;62074;43.530;-5.646;2022-08-19T02:16:27;102087.97;;;17.09;69.72
73767;BME280;62074;43.530;-5.646;2022-08-19T02:18:53;102086.91;;;17.10;69.65
73767;BME280;62074;43.530;-5.646;2022-08-19T02:21:21;102080.13;;;17.06;69.65
73767;BME280;62074;43.530;-5.646;2022-08-19T02:23:48;102076.13;;;17.02;70.11
73767;BME280;62074;43.530;-5.646;2022-08-19T02:26:15;102066.22;;;16.69;70.79
73767;BME280;62074;43.530;-5.646;2022-08-19T02:28:41;102072.56;;;16.95;70.28
73767;BME280;62074;43.530;-5.646;2022-08-19T02:31:12;102075.28;;;17.01;69.64
73767;BME280;62074;43.530;-5.646;2022-08-19T02:33:38;102076.38;;;16.75;70.62
73767;BME280;62074;43.530;-5.646;2022-08-19T02:36:05;102080.16;;;16.81;70.81
73767;BME280;62074;43.530;-5.646;2022-08-19T02:38:31;102073.38;;;16.77;70.58
73767;BME280;62074;43.530;-5.646;2022-08-19T02:41:07;102076.03;;;16.90;70.48
73767;BME280;62074;43.530;-5.646;2022-08-19T02:43:36;102072.13;;;16.98;70.11
73767;BME280;62074;43.530;-5.646;2022-08-19T02:46:17;102076.38;;;17.18;69.38
73767;BME280;62074;43.530;-5.646;2022-08-19T02:48:47;102080.31;;;17.11;69.66
73767;BME280;62074;43.530;-5.646;2022-08-19T02:51:22;102076.53;;;17.05;69.92
73767;BME280;62074;43.530;-5.646;2022-08-19T02:53:48;102084.88;;;16.99;69.82
73767;BME280;62074;43.530;-5.646;2022-08-19T02:56:14;102085.50;;;17.01;69.89
73767;BME280;62074;43.530;-5.646;2022-08-19T02:58:40;102078.81;;;16.90;70.00
73767;BME280;62074;43.530;-5.646;2022-08-19T03:01:06;102087.75;;;16.61;71.15
73767;BME280;62074;43.530;-5.646;2022-08-19T03:03:32;102075.91;;;16.78;70.70
73767;BME280;62074;43.530;-5.646;2022-08-19T03:06:15;102071.63;;;16.82;70.48
73767;BME280;62074;43.530;-5.646;2022-08-19T03:08:45;102080.97;;;16.56;71.73
73767;BME280;62074;43.530;-5.646;2022-08-19T03:11:25;102072.53;;;16.76;71.01
73767;BME280;62074;43.530;-5.646;2022-08-19T03:13:52;102088.19;;;16.89;70.59
73767;BME280;62074;43.530;-5.646;2022-08-19T03:16:20;102091.69;;;16.96;70.36
73767;BME280;62074;43.530;-5.646;2022-08-19T03:18:46;102062.94;;;16.79;70.71
73767;BME280;62074;43.530;-5.646;2022-08-19T03:21:19;102084.06;;;16.73;71.09
73767;BME280;62074;43.530;-5.646;2022-08-19T03:23:45;102088.59;;;16.61;71.64
73767;BME280;62074;43.530;-5.646;2022-08-19T03:26:11;102071.03;;;16.49;71.86
73767;BME280;62074;43.530;-5.646;2022-08-19T03:28:37;102065.75;;;16.47;71.60
73767;BME280;62074;43.530;-5.646;2022-08-19T03:31:10;102081.81;;;16.57;71.86
73767;BME280;62074;43.530;-5.646;2022-08-19T03:33:37;102073.50;;;16.57;71.74
73767;BME280;62074;43.530;-5.646;2022-08-19T03:36:07;102077.50;;;16.68;71.40
73767;BME280;62074;43.530;-5.646;2022-08-19T03:38:36;102075.16;;;16.40;72.36
73767;BME280;62074;43.530;-5.646;2022-08-19T03:41:03;102075.44;;;16.56;71.83
73767;BME280;62074;43.530;-5.646;2022-08-19T03:43:33;102059.25;;;16.60;71.77
73767;BME280;62074;43.530;-5.646;2022-08-19T03:46:04;102055.00;;;16.64;71.47
73767;BME280;62074;43.530;-5.646;2022-08-19T03:48:31;102063.69;;;16.68;71.38
73767;BME280;62074;43.530;-5.646;2022-08-19T03:50:58;102051.41;;;16.57;71.47
73767;BME280;62074;43.530;-5.646;2022-08-19T03:53:25;102069.66;;;16.65;71.59
73767;BME280;62074;43.530;-5.646;2022-08-19T03:55:51;102070.31;;;16.60;71.51
73767;BME280;62074;43.530;-5.646;2022-08-19T03:58:18;102079.66;;;16.59;71.57
73767;BME280;62074;43.530;-5.646;2022-08-19T04:00:43;102075.94;;;16.47;72.04
73767;BME280;62074;43.530;-5.646;2022-08-19T04:03:09;102073.19;;;16.47;71.96
73767;BME280;62074;43.530;-5.646;2022-08-19T04:05:34;102077.88;;;16.46;72.07
73767;BME280;62074;43.530;-5.646;2022-08-19T04:08:00;102084.94;;;16.36;72.52
73767;BME280;62074;43.530;-5.646;2022-08-19T04:10:27;102074.66;;;16.49;71.95
73767;BME280;62074;43.530;-5.646;2022-08-19T04:12:53;102066.81;;;16.46;71.59
73767;BME280;62074;43.530;-5.646;2022-08-19T04:15:19;102082.28;;;16.54;71.47
73767;BME280;62074;43.530;-5.646;2022-08-19T04:17:46;102073.75;;;16.55;71.43
73767;BME280;62074;43.530;-5.646;2022-08-19T04:20:11;102072.13;;;16.48;71.68
73767;BME280;62074;43.530;-5.646;2022-08-19T04:22:37;102069.91;;;16.56;71.45
73767;BME280;62074;43.530;-5.646;2022-08-19T04:25:02;102062.53;;;16.50;71.19
73767;BME280;62074;43.530;-5.646;2022-08-19T04:27:28;102059.78;;;16.50;71.40
73767;BME280;62074;43.530;-5.646;2022-08-19T04:29:54;102065.38;;;16.37;71.93
73767;BME280;62074;43.530;-5.646;2022-08-19T04:32:20;102077.34;;;16.31;72.67
73767;BME280;62074;43.530;-5.646;2022-08-19T04:34:46;102082.66;;;16.33;72.21
73767;BME280;62074;43.530;-5.646;2022-08-19T04:37:11;102066.22;;;16.38;71.98
73767;BME280;62074;43.530;-5.646;2022-08-19T04:39:38;102071.13;;;16.36;72.31
73767;BME280;62074;43.530;-5.646;2022-08-19T04:42:23;102075.88;;;16.29;72.87
73767;BME280;62074;43.530;-5.646;2022-08-19T04:45:09;102061.06;;;16.16;73.15
73767;BME280;62074;43.530;-5.646;2022-08-19T04:47:40;102071.59;;;16.33;72.85
73767;BME280;62074;43.530;-5.646;2022-08-19T04:50:07;102066.06;;;16.33;72.78
73767;BME280;62074;43.530;-5.646;2022-08-19T04:52:34;102062.28;;;16.27;72.95
73767;BME280;62074;43.530;-5.646;2022-08-19T04:54:59;102058.47;;;16.21;73.21
73767;BME280;62074;43.530;-5.646;2022-08-19T04:57:25;102062.19;;;16.09;73.60
73767;BME280;62074;43.530;-5.646;2022-08-19T04:59:55;102057.16;;;16.31;72.74
73767;BME280;62074;43.530;-5.646;2022-08-19T05:02:21;102057.63;;;15.96;73.81
73767;BME280;62074;43.530;-5.646;2022-08-19T05:04:50;102064.75;;;16.10;73.25
73767;BME280;62074;43.530;-5.646;2022-08-19T05:07:15;102057.06;;;16.12;72.68
73767;BME280;62074;43.530;-5.646;2022-08-19T05:09:42;102061.25;;;16.21;72.57
73767;BME280;62074;43.530;-5.646;2022-08-19T05:12:08;102058.56;;;16.15;72.62
73767;BME280;62074;43.530;-5.646;2022-08-19T05:14:33;102058.19;;;16.05;72.92
73767;BME280;62074;43.530;-5.646;2022-08-19T05:17:00;102047.75;;;16.07;72.64
73767;BME280;62074;43.530;-5.646;2022-08-19T05:19:26;102058.28;;;15.92;73.54
73767;BME280;62074;43.530;-5.646;2022-08-19T05:22:10;102062.94;;;15.91;73.31
73767;BME280;62074;43.530;-5.646;2022-08-19T05:24:54;102055.28;;;15.93;72.86
73767;BME280;62074;43.530;-5.646;2022-08-19T05:27:20;102050.63;;;15.94;72.49
73767;BME280;62074;43.530;-5.646;2022-08-19T05:29:45;102052.13;;;15.89;72.86
73767;BME280;62074;43.530;-5.646;2022-08-19T05:32:11;102065.38;;;16.12;72.51
73767;BME280;62074;43.530;-5.646;2022-08-19T05:34:48;102067.72;;;16.09;72.46
73767;BME280;62074;43.530;-5.646;2022-08-19T05:37:14;102080.31;;;15.98;72.97
73767;BME280;62074;43.530;-5.646;2022-08-19T05:39:39;102085.56;;;15.75;74.19
73767;BME280;62074;43.530;-5.646;2022-08-19T05:42:11;102081.25;;;15.79;74.24
73767;BME280;62074;43.530;-5.646;2022-08-19T05:44:40;102084.63;;;15.87;73.48
73767;BME280;62074;43.530;-5.646;2022-08-19T05:47:10;102086.34;;;15.82;73.82
73767;BME280;62074;43.530;-5.646;2022-08-19T05:49:41;102070.06;;;15.74;73.93
73767;BME280;62074;43.530;-5.646;2022-08-19T05:52:13;102072.00;;;16.05;73.31
73767;BME280;62074;43.530;-5.646;2022-08-19T05:54:40;102088.56;;;16.36;72.11
73767;BME280;62074;43.530;-5.646;2022-08-19T05:57:07;102091.22;;;16.24;72.72
73767;BME280;62074;43.530;-5.646;2022-08-19T05:59:33;102090.22;;;16.44;72.12
73767;BME280;62074;43.530;-5.646;2022-08-19T06:02:01;102095.25;;;16.53;71.80
73767;BME280;62074;43.530;-5.646;2022-08-19T06:04:26;102087.03;;;16.40;72.00
73767;BME280;62074;43.530;-5.646;2022-08-19T06:06:53;102086.78;;;16.48;71.68
73767;BME280;62074;43.530;-5.646;2022-08-19T06:09:21;102101.34;;;16.69;71.28
73767;BME280;62074;43.530;-5.646;2022-08-19T06:11:52;102107.31;;;16.59;71.44
73767;BME280;62074;43.530;-5.646;2022-08-19T06:14:24;102101.94;;;16.39;71.81
73767;BME280;62074;43.530;-5.646;2022-08-19T06:16:50;102104.69;;;16.14;73.26
73767;BME280;62074;43.530;-5.646;2022-08-19T06:19:20;102114.28;;;16.05;73.90
73767;BME280;62074;43.530;-5.646;2022-08-19T06:21:49;102110.44;;;16.06;73.54
73767;BME280;62074;43.530;-5.646;2022-08-19T06:24:19;102113.75;;;16.21;73.35
73767;BME280;62074;43.530;-5.646;2022-08-19T06:26:47;102113.19;;;16.44;72.29
73767;BME280;62074;43.530;-5.646;2022-08-19T06:29:15;102105.84;;;16.32;72.94
73767;BME280;62074;43.530;-5.646;2022-08-19T06:31:47;102102.34;;;16.43;73.08
73767;BME280;62074;43.530;-5.646;2022-08-19T06:34:15;102101.16;;;16.57;72.16
73767;BME280;62074;43.530;-5.646;2022-08-19T06:36:44;102101.28;;;16.44;72.81
73767;BME280;62074;43.530;-5.646;2022-08-19T06:39:12;102102.84;;;16.58;72.90
73767;BME280;62074;43.530;-5.646;2022-08-19T06:41:41;102101.97;;;16.71;72.03
73767;BME280;62074;43.530;-5.646;2022-08-19T06:44:08;102090.66;;;16.72;72.17
73767;BME280;62074;43.530;-5.646;2022-08-19T06:46:33;102100.72;;;16.60;73.09
73767;BME280;62074;43.530;-5.646;2022-08-19T06:48:59;102101.72;;;16.41;73.79
73767;BME280;62074;43.530;-5.646;2022-08-19T06:51:25;102100.19;;;16.45;74.12
73767;BME280;62074;43.530;-5.646;2022-08-19T06:53:54;102100.47;;;16.37;73.95
73767;BME280;62074;43.530;-5.646;2022-08-19T06:56:22;102092.13;;;16.43;74.12
73767;BME280;62074;43.530;-5.646;2022-08-19T06:58:50;102092.84;;;16.64;73.46
73767;BME280;62074;43.530;-5.646;2022-08-19T07:01:18;102091.13;;;16.69;73.23
73767;BME280;62074;43.530;-5.646;2022-08-19T07:03:44;102096.03;;;16.67;73.40
73767;BME280;62074;43.530;-5.646;2022-08-19T07:06:12;102093.28;;;16.61;74.00
73767;BME280;62074;43.530;-5.646;2022-08-19T07:08:38;102085.91;;;16.79;73.34
73767;BME280;62074;43.530;-5.646;2022-08-19T07:11:09;102090.59;;;16.79;73.41
73767;BME280;62074;43.530;-5.646;2022-08-19T07:13:37;102092.19;;;16.68;74.00
73767;BME280;62074;43.530;-5.646;2022-08-19T07:16:06;102078.47;;;16.80;73.12
73767;BME280;62074;43.530;-5.646;2022-08-19T07:18:32;102079.09;;;16.82;73.81
73767;BME280;62074;43.530;-5.646;2022-08-19T07:21:12;102081.78;;;16.88;74.02
73767;BME280;62074;43.530;-5.646;2022-08-19T07:23:38;102084.25;;;16.97;73.73
73767;BME280;62074;43.530;-5.646;2022-08-19T07:26:06;102087.63;;;16.99;73.46
73767;BME280;62074;43.530;-5.646;2022-08-19T07:28:32;102085.09;;;16.97;73.77
73767;BME280;62074;43.530;-5.646;2022-08-19T07:30:58;102099.31;;;17.01;74.48
73767;BME280;62074;43.530;-5.646;2022-08-19T07:33:23;102091.72;;;17.14;73.44
73767;BME280;62074;43.530;-5.646;2022-08-19T07:35:55;102083.44;;;17.14;73.44
73767;BME280;62074;43.530;-5.646;2022-08-19T07:38:20;102088.06;;;17.20;73.56
73767;BME280;62074;43.530;-5.646;2022-08-19T07:40:46;102086.19;;;17.14;74.01
73767;BME280;62074;43.530;-5.646;2022-08-19T07:43:11;102088.38;;;17.31;73.16
73767;BME280;62074;43.530;-5.646;2022-08-19T07:45:37;102085.84;;;17.29;73.55
73767;BME280;62074;43.530;-5.646;2022-08-19T07:48:03;102089.81;;;17.33;72.90
73767;BME280;62074;43.530;-5.646;2022-08-19T07:50:29;102093.16;;;17.42;73.23
73767;BME280;62074;43.530;-5.646;2022-08-19T07:52:54;102100.66;;;17.53;72.89
73767;BME280;62074;43.530;-5.646;2022-08-19T07:55:26;102090.13;;;17.61;72.15
73767;BME280;62074;43.530;-5.646;2022-08-19T07:57:51;102092.63;;;17.70;71.97
73767;BME280;62074;43.530;-5.646;2022-08-19T08:00:18;102101.53;;;17.72;72.11
73767;BME280;62074;43.530;-5.646;2022-08-19T08:02:44;102096.78;;;17.79;71.98
73767;BME280;62074;43.530;-5.646;2022-08-19T08:05:10;102099.06;;;17.82;71.49
73767;BME280;62074;43.530;-5.646;2022-08-19T08:07:55;102083.69;;;17.86;71.33
73767;BME280;62074;43.530;-5.646;2022-08-19T08:10:39;102087.81;;;17.95;71.26
73767;BME280;62074;43.530;-5.646;2022-08-19T08:13:05;102078.78;;;18.00;70.82
73767;BME280;62074;43.530;-5.646;2022-08-19T08:15:31;102084.97;;;18.13;70.42
73767;BME280;62074;43.530;-5.646;2022-08-19T08:17:57;102082.13;;;18.20;70.44
73767;BME280;62074;43.530;-5.646;2022-08-19T08:20:23;102091.19;;;18.27;69.47
73767;BME280;62074;43.530;-5.646;2022-08-19T08:22:49;102079.84;;;18.28;68.98
73767;BME280;62074;43.530;-5.646;2022-08-19T08:25:34;102086.50;;;18.27;69.15
73767;BME280;62074;43.530;-5.646;2022-08-19T08:28:01;102089.53;;;18.38;68.94
